Time;durP1;ratioP1;P1;durP2;ratioP2;P2;SDS_P1;SDS_P2;PMS_P1;PMS_P2;Temp;Humidity;BMP_temperature;BMP_pressure;BME280_temperature;BME280_humidity;BME280_pressure;Samples;Min_cycle;Max_cycle;Signal;HPM_P1;HPM_P2
2022/06/19 00:00:16;;;;;;;0.37;0.37;;;;;;;22.49;nan;95541.69;4951861;28;20439;-67
2022/06/19 00:02:46;;;;;;;0.20;0.20;;;;;;;22.57;nan;95546.28;4958797;28;20563;-64
2022/06/19 00:05:14;;;;;;;0.23;0.23;;;;;;;22.56;nan;95534.03;4942958;28;20247;-66
2022/06/19 00:07:43;;;;;;;0.73;0.70;;;;;;;22.66;nan;95544.38;4955796;28;20470;-70
2022/06/19 00:10:10;;;;;;;0.63;0.63;;;;;;;22.66;nan;95536.38;4959329;28;20663;-63
2022/06/19 00:12:37;;;;;;;0.30;0.30;;;;;;;22.83;nan;95531.00;4940720;28;20202;-65
2022/06/19 00:15:05;;;;;;;0.97;0.90;;;;;;;22.62;nan;95531.97;4960749;28;20208;-68
2022/06/19 00:17:32;;;;;;;1.00;0.70;;;;;;;22.72;nan;95537.78;4950719;28;20247;-66
2022/06/19 00:19:59;;;;;;;0.53;0.53;;;;;;;22.81;nan;95535.13;4951831;28;20302;-69
2022/06/19 00:22:44;;;;;;;0.47;0.47;;;;;;;22.72;nan;95537.78;4950920;28;20722;-66
2022/06/19 00:25:12;;;;;;;1.37;1.27;;;;;;;22.66;nan;95539.03;4951565;28;20530;-67
2022/06/19 00:27:40;;;;;;;0.27;0.27;;;;;;;22.56;nan;95534.03;4964601;28;20234;-70
2022/06/19 00:30:10;;;;;;;0.73;0.70;;;;;;;22.62;nan;95538.13;4951408;28;20675;-68
2022/06/19 00:32:37;;;;;;;0.60;0.60;;;;;;;22.46;nan;95539.66;4951357;28;20199;-62
2022/06/19 00:35:05;;;;;;;1.10;1.00;;;;;;;22.50;nan;95534.47;4951533;28;20216;-66
2022/06/19 00:37:33;;;;;;;0.50;0.50;;;;;;;22.31;nan;95536.66;4951130;28;20194;-67
2022/06/19 00:40:03;;;;;;;0.60;0.60;;;;;;;22.10;nan;95541.81;4951320;28;20242;-65
2022/06/19 00:42:30;;;;;;;0.73;0.73;;;;;;;22.38;nan;95534.31;4950984;28;20609;-69
2022/06/19 00:44:57;;;;;;;0.70;0.70;;;;;;;22.29;nan;95523.63;4964544;28;20191;-66
2022/06/19 00:47:33;;;;;;;1.00;0.63;;;;;;;22.24;nan;95525.66;4951085;28;20200;-68
2022/06/19 00:50:16;;;;;;;0.60;0.60;;;;;;;21.80;nan;95529.34;4963564;28;20195;-70
2022/06/19 00:52:43;;;;;;;0.93;0.70;;;;;;;22.05;nan;95540.09;4938900;28;20810;-66
2022/06/19 00:55:21;;;;;;;0.87;0.70;;;;;;;22.17;nan;95542.13;4951146;28;20211;-69
2022/06/19 00:57:54;;;;;;;0.53;0.53;;;;;;;22.16;nan;95545.91;4938422;29;20451;-68
2022/06/19 01:00:26;;;;;;;0.33;0.33;;;;;;;22.20;nan;95538.84;4950770;28;20679;-64
2022/06/19 01:02:57;;;;;;;0.60;0.60;;;;;;;21.96;nan;95541.16;4938388;28;20510;-65
2022/06/19 01:05:25;;;;;;;1.30;0.83;;;;;;;22.07;nan;95539.78;4950946;28;20575;-69
2022/06/19 01:07:55;;;;;;;0.67;0.67;;;;;;;22.03;nan;95542.28;4956887;28;20572;-65
2022/06/19 01:10:23;;;;;;;1.17;0.97;;;;;;;22.18;nan;95538.38;4957699;28;20462;-64
2022/06/19 01:12:51;;;;;;;0.80;0.80;;;;;;;22.41;nan;95537.13;4950584;28;20200;-65
2022/06/19 01:15:21;;;;;;;0.80;0.80;;;;;;;22.40;nan;95540.91;4961713;28;20994;-63
2022/06/19 01:17:53;;;;;;;1.10;0.53;;;;;;;22.05;nan;95544.63;4954687;28;20543;-65
2022/06/19 01:20:22;;;;;;;0.70;0.70;;;;;;;21.96;nan;95541.16;4954882;28;20550;-68
2022/06/19 01:22:52;;;;;;;0.87;0.70;;;;;;;21.96;nan;95539.28;4957330;28;20597;-65
2022/06/19 01:25:25;;;;;;;0.70;0.70;;;;;;;21.91;nan;95533.31;4963948;28;20447;-66
2022/06/19 01:30:46;;;;;;;0.70;0.70;;;;;;;22.14;nan;95542.75;4954303;29;20473;-67
2022/06/19 01:33:34;;;;;;;0.20;0.20;;;;;;;21.91;nan;95519.97;4959255;28;20444;-65
2022/06/19 01:36:02;;;;;;;1.73;1.00;;;;;;;21.95;nan;95531.59;4959680;28;20737;-68
2022/06/19 01:38:30;;;;;;;1.77;1.40;;;;;;;21.21;nan;95522.69;4954678;28;20451;-71
2022/06/19 01:41:02;;;;;;;2.37;0.90;;;;;;;21.61;nan;95529.59;4954313;28;20659;-65
2022/06/19 01:43:29;;;;;;;2.77;1.47;;;;;;;21.27;nan;95534.78;4967568;28;20440;-65
2022/06/19 01:45:57;;;;;;;1.30;1.20;;;;;;;21.69;nan;95536.84;4954344;28;20462;-62
2022/06/19 01:48:30;;;;;;;1.13;1.03;;;;;;;21.96;nan;95538.50;4953945;28;20453;-68
2022/06/19 01:50:58;;;;;;;0.43;0.43;;;;;;;22.07;nan;95535.22;4941195;28;20446;-72
2022/06/19 01:53:34;;;;;;;0.53;0.53;;;;;;;21.80;nan;95537.38;4954214;28;20452;-69
2022/06/19 01:56:20;;;;;;;1.00;0.80;;;;;;;21.69;nan;95536.03;4943178;28;20474;-66
2022/06/19 01:58:51;;;;;;;1.53;1.10;;;;;;;21.65;nan;95535.09;4940218;28;20452;-69
2022/06/19 02:01:18;;;;;;;0.63;0.63;;;;;;;21.65;nan;95545.75;4961273;28;20491;-61
2022/06/19 02:03:52;;;;;;;0.70;0.70;;;;;;;21.43;nan;95537.81;4959603;28;20486;-67
2022/06/19 02:06:26;;;;;;;0.40;0.40;;;;;;;21.67;nan;95543.56;4941574;28;20451;-69
2022/06/19 02:08:54;;;;;;;4.27;1.90;;;;;;;21.65;nan;95540.41;4967809;28;20874;-64
2022/06/19 02:11:22;;;;;;;0.87;0.80;;;;;;;21.30;nan;95541.38;4966582;28;20439;-67
2022/06/19 02:13:49;;;;;;;1.97;1.83;;;;;;;21.37;nan;95544.41;4966946;28;20439;-69
2022/06/19 02:16:20;;;;;;;0.60;0.60;;;;;;;21.60;nan;95554.69;4967509;28;20443;-65
2022/06/19 02:18:51;;;;;;;0.80;0.50;;;;;;;21.59;nan;95546.97;4953930;28;20451;-69
2022/06/19 02:21:35;;;;;;;1.70;1.27;;;;;;;21.77;nan;95553.97;4953420;28;20431;-64
2022/06/19 02:24:03;;;;;;;0.53;0.53;;;;;;;21.46;nan;95554.00;4953252;28;20451;-65
2022/06/19 02:26:30;;;;;;;0.53;0.53;;;;;;;21.32;nan;95552.50;4953151;28;20939;-66
2022/06/19 02:28:57;;;;;;;0.30;0.30;;;;;;;21.42;nan;95560.25;4965033;28;20443;-65
2022/06/19 02:31:24;;;;;;;1.27;1.07;;;;;;;21.53;nan;95548.22;4954820;28;20444;-63
2022/06/19 02:33:55;;;;;;;0.77;0.60;;;;;;;21.59;nan;95552.31;4953312;28;20444;-67
2022/06/19 02:36:37;;;;;;;0.53;0.53;;;;;;;21.63;nan;95550.59;4966976;28;20436;-68
2022/06/19 02:39:34;;;;;;;0.67;0.67;;;;;;;21.52;nan;95551.97;4953168;28;21035;-67
2022/06/19 02:42:05;;;;;;;0.60;0.60;;;;;;;21.53;nan;95553.56;4927468;28;20549;-66
2022/06/19 02:44:41;;;;;;;0.67;0.67;;;;;;;21.38;nan;95559.28;4952649;28;20447;-66
2022/06/19 02:47:09;;;;;;;1.10;0.67;;;;;;;21.28;nan;95556.88;4966297;28;20435;-67
2022/06/19 02:49:37;;;;;;;0.70;0.70;;;;;;;21.34;nan;95550.31;4962062;28;20995;-68
2022/06/19 02:52:06;;;;;;;0.40;0.40;;;;;;;21.18;nan;95558.72;4955264;28;20458;-67
2022/06/19 02:54:33;;;;;;;0.87;0.43;;;;;;;21.13;nan;95561.50;4941661;28;20447;-65
2022/06/19 02:57:00;;;;;;;0.50;0.47;;;;;;;21.05;nan;95564.94;4952847;28;20498;-64
2022/06/19 02:59:27;;;;;;;0.73;0.73;;;;;;;21.10;nan;95572.78;4952859;28;20431;-70
2022/06/19 03:01:54;;;;;;;0.20;0.20;;;;;;;21.17;nan;95560.91;4952799;29;20473;-68
2022/06/19 03:04:24;;;;;;;1.40;1.30;;;;;;;21.33;nan;95564.75;4952611;28;20557;-67
2022/06/19 03:06:52;;;;;;;0.93;0.60;;;;;;;21.33;nan;95570.84;4952699;28;20447;-61
2022/06/19 03:09:19;;;;;;;1.30;0.77;;;;;;;20.84;nan;95579.78;4952859;28;20447;-65
2022/06/19 03:11:46;;;;;;;0.90;0.73;;;;;;;21.11;nan;95585.00;4952703;28;20495;-62
2022/06/19 03:14:13;;;;;;;1.53;1.33;;;;;;;20.96;nan;95582.72;4952785;28;20454;-69
2022/06/19 03:16:40;;;;;;;2.20;0.80;;;;;;;21.11;nan;95579.69;4951779;28;20454;-65
2022/06/19 03:19:07;;;;;;;0.50;0.50;;;;;;;21.13;nan;95576.72;4952407;28;20451;-67
2022/06/19 03:21:34;;;;;;;0.40;0.40;;;;;;;21.27;nan;95576.63;4951669;28;20435;-68
2022/06/19 03:24:01;;;;;;;1.93;1.37;;;;;;;21.17;nan;95582.25;4952557;28;20510;-65
2022/06/19 03:26:28;;;;;;;0.70;0.70;;;;;;;21.12;nan;95583.13;4946710;28;20437;-65
2022/06/19 03:28:55;;;;;;;0.47;0.47;;;;;;;20.89;nan;95581.56;4944229;28;20951;-65
2022/06/19 03:31:24;;;;;;;0.30;0.30;;;;;;;21.03;nan;95588.44;4955869;28;20439;-65
2022/06/19 03:33:51;;;;;;;1.83;1.67;;;;;;;20.58;nan;95589.47;4971755;28;20864;-70
2022/06/19 03:36:20;;;;;;;0.60;0.60;;;;;;;20.06;nan;95587.38;4968539;28;20442;-64
2022/06/19 03:38:47;;;;;;;0.40;0.40;;;;;;;20.30;nan;95579.97;4943591;28;20440;-67
2022/06/19 03:41:14;;;;;;;0.87;0.70;;;;;;;20.58;nan;95549.53;4947022;28;20802;-69
2022/06/19 03:43:42;;;;;;;2.10;1.63;;;;;;;20.46;nan;95575.88;4951883;28;20479;-67
2022/06/19 03:46:15;;;;;;;1.50;1.40;;;;;;;20.18;nan;95583.16;4960509;28;20449;-67
2022/06/19 03:48:45;;;;;;;0.97;0.90;;;;;;;20.43;nan;95581.81;4968687;28;20445;-64
2022/06/19 03:51:15;;;;;;;0.37;0.37;;;;;;;20.51;nan;95581.09;4951697;28;20453;-67
2022/06/19 03:53:43;;;;;;;0.30;0.30;;;;;;;20.85;nan;95576.06;4951916;28;20448;-67
2022/06/19 03:56:14;;;;;;;1.30;1.07;;;;;;;20.94;nan;95568.91;4951559;28;20494;-68
2022/06/19 03:58:47;;;;;;;0.20;0.20;;;;;;;21.27;nan;95576.63;4951831;28;20443;-68
2022/06/19 04:01:20;;;;;;;0.50;0.50;;;;;;;21.43;nan;95572.47;4951675;28;20551;-67
2022/06/19 04:03:50;;;;;;;1.50;0.90;;;;;;;21.24;nan;95566.59;4963084;28;20494;-65
2022/06/19 04:06:21;;;;;;;1.37;0.83;;;;;;;21.35;nan;95574.00;4954290;28;20955;-67
2022/06/19 04:08:49;;;;;;;0.50;0.50;;;;;;;21.43;nan;95580.47;4951611;28;20443;-66
2022/06/19 04:11:17;;;;;;;0.73;0.73;;;;;;;21.31;nan;95582.94;4951709;28;20522;-66
2022/06/19 04:13:44;;;;;;;0.77;0.77;;;;;;;21.29;nan;95585.13;4951771;28;20510;-65
2022/06/19 04:16:21;;;;;;;1.07;0.80;;;;;;;21.33;nan;95581.53;4951101;28;20442;-69
2022/06/19 04:18:50;;;;;;;0.57;0.57;;;;;;;21.20;nan;95581.63;4951345;28;20474;-70
2022/06/19 04:21:24;;;;;;;0.77;0.77;;;;;;;21.32;nan;95573.84;4937742;28;20517;-68
2022/06/19 04:23:56;;;;;;;0.70;0.70;;;;;;;21.45;nan;95579.09;4951819;28;20924;-65
2022/06/19 04:26:26;;;;;;;1.97;0.40;;;;;;;21.32;nan;95584.50;4951164;28;20636;-66
2022/06/19 04:28:54;;;;;;;0.40;0.40;;;;;;;21.47;nan;95586.78;4958034;28;20599;-64
2022/06/19 04:31:21;;;;;;;0.60;0.60;;;;;;;20.84;nan;95589.66;4950407;28;21384;-66
2022/06/19 04:33:48;;;;;;;0.30;0.30;;;;;;;20.89;nan;95582.31;4951471;28;20534;-62
2022/06/19 04:36:17;;;;;;;0.23;0.23;;;;;;;20.94;nan;95579.56;4951048;28;20552;-69
2022/06/19 04:38:47;;;;;;;0.70;0.57;;;;;;;21.10;nan;95580.78;4951405;28;20204;-63
2022/06/19 04:41:16;;;;;;;0.60;0.60;;;;;;;21.54;nan;95581.78;4950628;28;20499;-71
2022/06/19 04:43:43;;;;;;;0.50;0.50;;;;;;;21.54;nan;95582.59;4951170;28;21017;-64
2022/06/19 04:46:11;;;;;;;0.50;0.50;;;;;;;20.99;nan;95578.63;4950859;28;20510;-69
2022/06/19 04:48:38;;;;;;;1.20;0.70;;;;;;;21.12;nan;95586.59;4950954;28;20447;-68
2022/06/19 04:51:06;;;;;;;0.53;0.53;;;;;;;21.37;nan;95565.72;4958009;28;20454;-64
2022/06/19 04:53:34;;;;;;;0.40;0.40;;;;;;;21.47;nan;95586.78;4960058;28;20797;-69
2022/06/19 04:56:01;;;;;;;0.83;0.60;;;;;;;21.54;nan;95584.47;4942017;28;20513;-70
2022/06/19 04:58:28;;;;;;;0.40;0.40;;;;;;;21.64;nan;95586.88;4942304;28;20316;-62
2022/06/19 05:00:55;;;;;;;0.70;0.40;;;;;;;21.92;nan;95588.25;4954001;28;20202;-65
2022/06/19 05:03:24;;;;;;;0.70;0.40;;;;;;;20.69;nan;95590.78;4954977;28;20467;-67
2022/06/19 05:05:53;;;;;;;0.40;0.40;;;;;;;21.41;nan;95588.78;4954447;28;20451;-66
2022/06/19 05:08:21;;;;;;;1.53;1.17;;;;;;;20.76;nan;95583.19;4954613;28;20797;-64
2022/06/19 05:10:49;;;;;;;0.20;0.20;;;;;;;21.10;nan;95591.44;4954722;28;20469;-66
2022/06/19 05:13:20;;;;;;;0.40;0.40;;;;;;;21.54;nan;95592.47;4953851;28;20432;-63
2022/06/19 05:15:49;;;;;;;0.43;0.43;;;;;;;21.62;nan;95594.38;4954457;28;20961;-63
2022/06/19 05:18:17;;;;;;;0.73;0.60;;;;;;;21.92;nan;95596.25;4962317;28;20476;-65
2022/06/19 05:20:44;;;;;;;0.70;0.60;;;;;;;21.15;nan;95598.50;4959664;28;20644;-67
2022/06/19 05:23:12;;;;;;;0.37;0.37;;;;;;;21.38;nan;95599.28;4954532;28;20493;-67
2022/06/19 05:25:39;;;;;;;0.93;0.53;;;;;;;21.78;nan;95592.88;4942168;28;20213;-65
2022/06/19 05:28:06;;;;;;;1.83;0.83;;;;;;;21.89;nan;95591.53;4958196;28;20450;-64
2022/06/19 05:30:32;;;;;;;1.30;0.70;;;;;;;21.43;nan;95601.81;4963073;28;20447;-65
2022/06/19 05:32:59;;;;;;;0.60;0.60;;;;;;;21.61;nan;95604.25;4954154;28;20518;-65
2022/06/19 05:35:26;;;;;;;0.30;0.30;;;;;;;22.23;nan;95588.94;4954848;28;20831;-67
2022/06/19 05:37:53;;;;;;;0.63;0.63;;;;;;;22.52;nan;95602.50;4940600;28;20452;-67
2022/06/19 05:40:20;;;;;;;0.40;0.40;;;;;;;22.40;nan;95597.00;4954177;28;20825;-69
2022/06/19 05:42:48;;;;;;;0.80;0.63;;;;;;;21.81;nan;95597.63;4953916;28;20470;-68
2022/06/19 05:45:14;;;;;;;0.30;0.30;;;;;;;22.18;nan;95589.09;4942295;28;20584;-66
2022/06/19 05:47:41;;;;;;;0.20;0.20;;;;;;;22.64;nan;95596.56;4965249;28;20691;-62
2022/06/19 05:50:11;;;;;;;0.40;0.40;;;;;;;22.73;nan;95592.00;4954206;28;20220;-65
2022/06/19 05:52:38;;;;;;;0.30;0.30;;;;;;;22.76;nan;95592.16;4947312;28;20810;-64
2022/06/19 05:55:06;;;;;;;0.27;0.27;;;;;;;22.54;nan;95591.50;4961081;28;20200;-66
2022/06/19 05:57:34;;;;;;;1.53;0.40;;;;;;;22.82;nan;95590.91;4950512;28;20275;-67
2022/06/19 06:00:01;;;;;;;0.57;0.57;;;;;;;22.35;nan;95591.81;4950040;28;20188;-66
2022/06/19 06:02:37;;;;;;;0.63;0.60;;;;;;;22.28;nan;95596.03;4971584;28;20683;-68
2022/06/19 06:05:07;;;;;;;0.40;0.40;;;;;;;22.57;nan;95593.59;4957662;28;20321;-68
2022/06/19 06:07:34;;;;;;;0.30;0.30;;;;;;;22.59;nan;95594.81;4957353;28;20281;-64
2022/06/19 06:10:01;;;;;;;0.60;0.60;;;;;;;22.59;nan;95592.16;4961966;28;20849;-68
2022/06/19 06:12:28;;;;;;;0.50;0.50;;;;;;;23.01;nan;95598.59;4922074;28;20192;-62
2022/06/19 06:14:55;;;;;;;0.17;0.17;;;;;;;22.85;nan;95592.94;4921846;28;20206;-68
2022/06/19 06:17:23;;;;;;;0.77;0.77;;;;;;;23.31;nan;95588.81;4921497;28;20196;-64
2022/06/19 06:19:50;;;;;;;0.47;0.47;;;;;;;23.46;nan;95572.25;4923104;28;20242;-65
2022/06/19 06:22:17;;;;;;;1.03;0.90;;;;;;;22.96;nan;95591.53;4916331;28;20346;-66
2022/06/19 06:24:44;;;;;;;0.60;0.60;;;;;;;23.53;nan;95588.59;4919212;28;20219;-70
2022/06/19 06:27:11;;;;;;;0.63;0.63;;;;;;;23.09;nan;95598.59;4921847;28;20223;-65
2022/06/19 06:29:38;;;;;;;0.47;0.47;;;;;;;23.58;nan;95591.88;4920387;28;20701;-67
2022/06/19 06:32:05;;;;;;;0.60;0.60;;;;;;;23.99;nan;95569.84;4926817;28;20773;-67
2022/06/19 06:34:32;;;;;;;0.87;0.70;;;;;;;23.80;nan;95588.97;4919235;28;20276;-67
2022/06/19 06:36:59;;;;;;;0.73;0.57;;;;;;;23.71;nan;95587.44;4924473;28;20240;-66
2022/06/19 06:39:26;;;;;;;0.90;0.90;;;;;;;23.76;nan;95584.56;4927426;28;20203;-63
2022/06/19 06:41:53;;;;;;;0.40;0.40;;;;;;;24.30;nan;95586.38;4927049;28;20206;-65
2022/06/19 06:44:20;;;;;;;1.40;0.60;;;;;;;23.99;nan;95570.63;4926464;28;21166;-64
2022/06/19 06:46:46;;;;;;;0.67;0.63;;;;;;;24.82;nan;95571.50;4925951;28;20662;-65
2022/06/19 06:49:13;;;;;;;0.77;0.73;;;;;;;24.35;nan;95578.16;4928396;28;20711;-65
2022/06/19 06:51:41;;;;;;;0.40;0.40;;;;;;;24.85;nan;95572.75;4924531;28;20381;-65
2022/06/19 06:54:08;;;;;;;0.53;0.53;;;;;;;24.54;nan;95565.06;4927082;28;20215;-69
2022/06/19 06:56:35;;;;;;;0.40;0.40;;;;;;;24.74;nan;95563.53;4934725;28;21226;-68
2022/06/19 06:59:03;;;;;;;0.90;0.37;;;;;;;25.09;nan;95565.56;4919530;28;20634;-66
2022/06/19 07:01:32;;;;;;;1.07;0.80;;;;;;;24.75;nan;95560.53;4918670;28;20251;-64
2022/06/19 07:03:59;;;;;;;0.40;0.40;;;;;;;25.02;nan;95565.34;4918215;28;20277;-65
2022/06/19 07:06:28;;;;;;;2.03;0.67;;;;;;;24.74;nan;95552.81;4914684;28;20287;-69
2022/06/19 07:08:56;;;;;;;0.37;0.37;;;;;;;25.04;nan;95560.44;4918621;28;20691;-69
2022/06/19 07:11:28;;;;;;;0.57;0.57;;;;;;;25.09;nan;95549.47;4919938;28;21340;-65
2022/06/19 07:13:55;;;;;;;0.40;0.40;;;;;;;24.93;nan;95551.22;4919253;28;21301;-65
2022/06/19 07:16:22;;;;;;;0.43;0.43;;;;;;;25.23;nan;95553.78;4914937;28;20266;-68
2022/06/19 07:18:49;;;;;;;0.30;0.30;;;;;;;25.51;nan;95533.28;4920375;28;20211;-69
2022/06/19 07:21:18;;;;;;;0.57;0.57;;;;;;;25.84;nan;95550.06;4915333;28;20271;-64
2022/06/19 07:23:44;;;;;;;0.47;0.47;;;;;;;25.78;nan;95554.13;4915825;28;20223;-69
2022/06/19 07:26:13;;;;;;;0.63;0.63;;;;;;;25.87;nan;95536.00;4921816;28;20204;-66
2022/06/19 07:28:41;;;;;;;0.40;0.40;;;;;;;26.29;nan;95540.00;4923426;28;20200;-63
2022/06/19 07:31:09;;;;;;;0.57;0.57;;;;;;;26.13;nan;95541.03;4916134;28;20212;-66
2022/06/19 07:33:37;;;;;;;0.57;0.57;;;;;;;26.08;nan;95535.88;4921943;28;20199;-67
2022/06/19 07:36:06;;;;;;;0.43;0.40;;;;;;;25.63;nan;95535.97;4921518;28;20212;-70
2022/06/19 07:38:33;;;;;;;0.13;0.13;;;;;;;25.66;nan;95535.28;4917001;28;20207;-65
2022/06/19 07:41:00;;;;;;;0.27;0.27;;;;;;;25.74;nan;95515.63;4921534;28;20216;-66
2022/06/19 07:43:27;;;;;;;0.50;0.50;;;;;;;26.12;nan;95537.56;4949802;28;20276;-67
2022/06/19 07:45:54;;;;;;;0.40;0.40;;;;;;;26.09;nan;95538.25;4949588;28;20218;-67
2022/06/19 07:51:06;;;;;;;0.47;0.47;;;;;;;26.41;nan;95536.50;4951841;28;20264;-64
2022/06/19 07:53:33;;;;;;;0.20;0.20;;;;;;;26.11;nan;95540.59;4952837;28;20198;-65
2022/06/19 07:56:00;;;;;;;0.20;0.20;;;;;;;26.64;nan;95524.88;4955873;28;20199;-68
2022/06/19 07:58:27;;;;;;;1.37;0.83;;;;;;;26.94;nan;95536.91;4955817;28;20206;-69
2022/06/19 08:00:54;;;;;;;0.20;0.20;;;;;;;26.80;nan;95541.91;4957532;28;20215;-69
2022/06/19 08:03:21;;;;;;;0.30;0.30;;;;;;;26.74;nan;95529.81;4951575;28;20223;-64
2022/06/19 08:05:48;;;;;;;0.13;0.13;;;;;;;26.56;nan;95531.22;4950888;29;20215;-68
2022/06/19 08:08:19;;;;;;;0.50;0.50;;;;;;;26.85;nan;95528.22;4950537;28;20262;-66
2022/06/19 08:10:50;;;;;;;0.40;0.40;;;;;;;27.40;nan;95527.38;4950528;28;20211;-70
2022/06/19 08:13:20;;;;;;;2.73;1.90;;;;;;;27.60;nan;95526.34;4959254;28;20238;-66
2022/06/19 08:15:49;;;;;;;1.33;1.00;;;;;;;27.27;nan;95525.06;4955551;28;20200;-67
2022/06/19 08:18:16;;;;;;;1.03;0.93;;;;;;;27.22;nan;95520.75;4952564;28;20742;-64
2022/06/19 08:20:43;;;;;;;0.73;0.73;;;;;;;27.23;nan;95527.69;4937905;28;20199;-66
2022/06/19 08:23:10;;;;;;;4.70;3.43;;;;;;;27.46;nan;95517.91;4950471;28;20295;-65
2022/06/19 08:25:38;;;;;;;2.23;2.03;;;;;;;27.74;nan;95524.00;4950556;28;20200;-67
2022/06/19 08:28:05;;;;;;;0.47;0.43;;;;;;;27.66;nan;95524.19;4951017;28;20593;-67
2022/06/19 08:30:41;;;;;;;0.83;0.60;;;;;;;27.72;nan;95523.56;4961727;28;20273;-68
2022/06/19 08:33:09;;;;;;;0.10;0.10;;;;;;;27.96;nan;95517.22;4951791;28;20196;-68
2022/06/19 08:35:40;;;;;;;0.73;0.60;;;;;;;27.86;nan;95523.88;4950501;28;20200;-66
2022/06/19 08:38:11;;;;;;;0.20;0.20;;;;;;;27.47;nan;95518.69;4953979;28;20199;-68
2022/06/19 08:40:47;;;;;;;0.40;0.40;;;;;;;28.56;nan;95511.25;4959994;28;20911;-66
2022/06/19 08:43:29;;;;;;;0.20;0.20;;;;;;;28.90;nan;95513.09;4963545;28;20199;-66
2022/06/19 08:46:14;;;;;;;2.47;2.07;;;;;;;29.14;nan;95511.25;4957067;28;20207;-68
2022/06/19 08:49:23;;;;;;;1.83;1.70;;;;;;;29.06;nan;95501.44;4953256;28;20208;-62
2022/06/19 08:52:04;;;;;;;1.90;1.80;;;;;;;29.23;nan;95503.72;4936451;29;20703;-66
2022/06/19 08:54:31;;;;;;;0.47;0.23;;;;;;;29.01;nan;95497.13;4950383;28;20927;-66
2022/06/19 08:57:15;;;;;;;0.30;0.30;;;;;;;29.36;nan;95497.00;4949827;28;20655;-66
2022/06/19 08:59:45;;;;;;;0.90;0.80;;;;;;;29.13;nan;95504.28;4949735;28;20203;-67
2022/06/19 09:02:24;;;;;;;2.90;1.50;;;;;;;29.06;nan;95498.72;4949687;28;20214;-67
2022/06/19 09:08:18;;;;;;;2.33;1.87;;;;;;;28.98;nan;95491.66;4947382;28;20680;-70
2022/06/19 09:10:45;;;;;;;3.80;3.40;;;;;;;29.36;nan;95491.59;4947983;28;20255;-68
2022/06/19 09:13:12;;;;;;;0.60;0.60;;;;;;;29.19;nan;95489.34;4950147;28;20210;-65
2022/06/19 09:15:44;;;;;;;0.77;0.47;;;;;;;29.10;nan;95489.56;4948240;28;20196;-68
2022/06/19 09:18:15;;;;;;;0.37;0.37;;;;;;;29.36;nan;95494.28;4968482;28;20682;-67
2022/06/19 09:20:45;;;;;;;0.70;0.70;;;;;;;29.83;nan;95492.00;4959044;28;20216;-68
2022/06/19 09:23:30;;;;;;;0.63;0.57;;;;;;;29.70;nan;95485.25;4950018;28;20210;-69
2022/06/19 09:26:08;;;;;;;0.50;0.50;;;;;;;29.38;nan;95483.91;4950432;28;20207;-66
2022/06/19 09:29:00;;;;;;;0.57;0.57;;;;;;;29.36;nan;95480.78;4931678;29;20200;-67
2022/06/19 09:31:35;;;;;;;0.50;0.50;;;;;;;29.24;nan;95475.56;4958749;28;20760;-66
2022/06/19 09:34:26;;;;;;;0.30;0.30;;;;;;;29.23;nan;95465.91;4950722;28;20243;-66
2022/06/19 09:37:08;;;;;;;0.73;0.73;;;;;;;29.49;nan;95469.44;4949899;28;20222;-69
2022/06/19 09:39:57;;;;;;;0.30;0.30;;;;;;;29.06;nan;95466.34;4952967;28;20191;-71
2022/06/19 09:42:51;;;;;;;0.33;0.33;;;;;;;29.04;nan;95465.91;4941119;28;20258;-68
2022/06/19 09:45:57;;;;;;;0.20;0.20;;;;;;;28.74;nan;95469.22;4955052;28;20259;-70
2022/06/19 09:48:33;;;;;;;0.40;0.40;;;;;;;29.54;nan;95462.97;4899567;29;20210;-69
2022/06/19 09:51:22;;;;;;;1.47;1.37;;;;;;;30.16;nan;95454.25;4927616;28;20583;-68
2022/06/19 09:54:11;;;;;;;3.37;2.90;;;;;;;30.32;nan;95463.00;4949377;29;20206;-66
2022/06/19 09:56:53;;;;;;;1.07;0.97;;;;;;;30.25;nan;95459.38;4953300;28;20577;-71
2022/06/19 09:59:47;;;;;;;0.40;0.40;;;;;;;30.75;nan;95448.81;4952181;28;20694;-67
2022/06/19 10:02:33;;;;;;;0.30;0.30;;;;;;;30.89;nan;95451.69;4940676;28;20212;-67
2022/06/19 10:05:23;;;;;;;0.20;0.20;;;;;;;30.64;nan;95464.16;4952155;28;20745;-68
2022/06/19 10:07:59;;;;;;;0.40;0.40;;;;;;;30.08;nan;95455.31;4952672;28;20593;-72
2022/06/19 10:10:35;;;;;;;0.43;0.23;;;;;;;30.38;nan;95450.69;4953077;28;20717;-64
2022/06/19 10:13:10;;;;;;;0.17;0.17;;;;;;;30.70;nan;95441.03;4940420;29;20531;-69
2022/06/19 10:15:41;;;;;;;0.70;0.50;;;;;;;31.23;nan;95451.66;4952718;28;20191;-68
2022/06/19 10:18:13;;;;;;;0.40;0.40;;;;;;;31.62;nan;95436.53;4947155;28;20239;-64
2022/06/19 10:20:47;;;;;;;0.30;0.30;;;;;;;30.57;nan;95445.16;4935670;28;20209;-63
2022/06/19 10:23:29;;;;;;;0.43;0.43;;;;;;;31.08;nan;95439.91;4938543;28;20208;-64
2022/06/19 10:26:11;;;;;;;0.40;0.40;;;;;;;31.24;nan;95437.72;4952432;28;20275;-64
2022/06/19 10:28:56;;;;;;;0.40;0.40;;;;;;;30.21;nan;95428.81;4952540;28;20319;-62
2022/06/19 10:31:26;;;;;;;0.30;0.30;;;;;;;30.71;nan;95434.47;4952173;28;20835;-64
2022/06/19 10:34:20;;;;;;;0.30;0.30;;;;;;;31.35;nan;95427.00;4940128;28;20626;-62
2022/06/19 10:36:50;;;;;;;0.20;0.20;;;;;;;31.12;nan;95435.31;4941124;28;20243;-64
2022/06/19 10:39:59;;;;;;;4.43;3.20;;;;;;;31.24;nan;95431.56;4952694;28;20218;-66
2022/06/19 10:42:44;;;;;;;6.73;4.57;;;;;;;31.59;nan;95426.44;4945316;28;20215;-64
2022/06/19 10:45:27;;;;;;;1.10;1.00;;;;;;;31.69;nan;95425.75;4940891;28;20720;-63
2022/06/19 10:48:12;;;;;;;0.20;0.20;;;;;;;31.27;nan;95425.38;4962480;28;20204;-63
2022/06/19 10:50:43;;;;;;;0.20;0.20;;;;;;;31.56;nan;95416.34;4952101;28;20200;-63
2022/06/19 10:53:48;;;;;;;0.30;0.30;;;;;;;31.49;nan;95425.22;4941884;28;20200;-65
2022/06/19 10:56:20;;;;;;;0.27;0.27;;;;;;;31.54;nan;95429.50;4939582;29;20204;-63
2022/06/19 10:58:47;;;;;;;0.30;0.30;;;;;;;31.12;nan;95429.09;4950811;28;20675;-62
2022/06/19 11:04:12;;;;;;;0.30;0.30;;;;;;;31.27;nan;95419.97;4941455;28;20730;-64
2022/06/19 11:06:54;;;;;;;0.20;0.20;;;;;;;31.02;nan;95424.38;4961368;28;20196;-63
2022/06/19 11:09:26;;;;;;;2.53;1.50;;;;;;;31.48;nan;95420.16;4951574;28;20603;-63
2022/06/19 11:11:55;;;;;;;2.97;2.77;;;;;;;31.47;nan;95413.97;4951422;28;20200;-64
2022/06/19 11:14:43;;;;;;;0.47;0.33;;;;;;;31.42;nan;95405.41;4951368;28;20203;-65
2022/06/19 11:17:16;;;;;;;0.30;0.30;;;;;;;31.09;nan;95397.38;4951429;28;20200;-63
2022/06/19 11:19:46;;;;;;;0.37;0.37;;;;;;;31.32;nan;95403.38;4938047;29;20628;-63
2022/06/19 11:22:22;;;;;;;0.20;0.20;;;;;;;31.59;nan;95393.91;4950086;29;20246;-63
2022/06/19 11:24:49;;;;;;;0.20;0.20;;;;;;;31.76;nan;95395.97;4951462;28;20219;-63
2022/06/19 11:27:26;;;;;;;0.47;0.47;;;;;;;31.18;nan;95389.72;4951725;28;20196;-62
2022/06/19 11:29:56;;;;;;;0.20;0.20;;;;;;;31.67;nan;95390.13;4951194;29;20253;-63
2022/06/19 11:32:26;;;;;;;0.37;0.37;;;;;;;32.17;nan;95388.50;4951489;28;20639;-62
2022/06/19 11:35:01;;;;;;;0.30;0.30;;;;;;;32.35;nan;95376.56;4937403;28;20278;-64
2022/06/19 11:37:37;;;;;;;0.33;0.33;;;;;;;32.06;nan;95383.03;4951350;28;20827;-66
2022/06/19 11:40:06;;;;;;;0.27;0.27;;;;;;;31.65;nan;95387.00;4951059;28;20724;-65
2022/06/19 11:42:54;;;;;;;0.40;0.40;;;;;;;32.20;nan;95374.94;4950430;28;20206;-66
2022/06/19 11:45:26;;;;;;;0.30;0.30;;;;;;;31.85;nan;95374.72;4953490;28;20234;-70
2022/06/19 11:47:56;;;;;;;0.40;0.40;;;;;;;31.84;nan;95367.78;4963164;28;20208;-66
2022/06/19 11:50:29;;;;;;;0.30;0.30;;;;;;;31.62;nan;95371.50;4952873;28;20207;-66
2022/06/19 11:53:05;;;;;;;0.20;0.20;;;;;;;31.09;nan;95375.72;4951030;28;20290;-68
2022/06/19 11:55:36;;;;;;;0.30;0.30;;;;;;;31.96;nan;95372.88;4951004;28;20206;-65
2022/06/19 11:58:14;;;;;;;0.40;0.40;;;;;;;32.73;nan;95351.47;4950722;28;20644;-66
2022/06/19 12:00:43;;;;;;;0.30;0.30;;;;;;;33.08;nan;95353.47;4950087;28;20642;-66
2022/06/19 12:03:36;;;;;;;0.30;0.30;;;;;;;33.25;nan;95354.66;4950714;28;20203;-67
2022/06/19 12:06:09;;;;;;;0.50;0.50;;;;;;;32.13;nan;95361.34;4950290;28;20215;-67
2022/06/19 12:08:57;;;;;;;0.37;0.37;;;;;;;32.18;nan;95360.97;4950153;28;20220;-69
2022/06/19 12:11:41;;;;;;;0.43;0.43;;;;;;;31.71;nan;95361.13;4931679;28;20193;-71
2022/06/19 12:14:12;;;;;;;0.40;0.40;;;;;;;32.01;nan;95360.91;4946464;28;20273;-64
2022/06/19 12:16:39;;;;;;;0.40;0.40;;;;;;;32.67;nan;95355.72;4948994;28;20195;-69
2022/06/19 12:19:30;;;;;;;0.37;0.37;;;;;;;32.30;nan;95351.72;4953025;28;20204;-67
2022/06/19 12:22:03;;;;;;;0.40;0.40;;;;;;;33.04;nan;95358.13;4937979;28;20208;-72
2022/06/19 12:24:41;;;;;;;0.20;0.20;;;;;;;32.98;nan;95350.75;4947959;28;20218;-73